Time;durP1;ratioP1;P1;durP2;ratioP2;P2;SDS_P1;SDS_P2;PMS_P1;PMS_P2;Temp;Humidity;BMP_temperature;BMP_pressure;BME280_temperature;BME280_humidity;BME280_pressure;Samples;Min_cycle;Max_cycle;Signal;HPM_P1;HPM_P2
2022/05/10 00:01:24;;;;;;;17.42;14.10;;;14.60;99.90;;;13.28;100.00;101003.00;4967480;28;20044;-87
2022/05/10 00:03:56;;;;;;;17.95;13.60;;;14.60;99.90;;;13.24;100.00;101002.53;4966647;28;20051;-87
2022/05/10 00:06:24;;;;;;;17.50;13.23;;;14.50;99.90;;;13.22;100.00;101004.59;4971664;28;20117;-87
2022/05/10 00:08:51;;;;;;;16.88;13.95;;;14.50;99.90;;;13.24;100.00;100997.06;4974630;28;20078;-87
2022/05/10 00:11:20;;;;;;;17.88;14.93;;;14.50;99.90;;;13.23;100.00;101003.56;4970771;28;20042;-88
2022/05/10 00:13:48;;;;;;;17.20;14.23;;;14.50;99.90;;;13.20;100.00;100997.63;4972917;28;20434;-88
2022/05/10 00:16:18;;;;;;;18.23;14.45;;;14.50;99.90;;;13.17;100.00;100989.81;4974273;28;20129;-87
2022/05/10 00:18:46;;;;;;;19.70;13.82;;;14.40;99.90;;;13.17;100.00;100996.13;4974328;28;20053;-87
2022/05/10 00:21:21;;;;;;;19.25;14.07;;;14.50;99.90;;;13.17;100.00;100989.81;4973431;28;20051;-89
2022/05/10 00:23:49;;;;;;;21.48;14.90;;;14.40;99.90;;;13.16;100.00;100980.78;4989255;28;20140;-88
2022/05/10 00:26:17;;;;;;;15.70;12.60;;;14.40;99.90;;;13.17;100.00;100985.19;4973179;28;20149;-87
2022/05/10 00:28:46;;;;;;;17.85;13.90;;;14.50;99.90;;;13.19;100.00;100980.38;4972579;28;20240;-87
2022/05/10 00:31:15;;;;;;;16.45;13.13;;;14.50;99.90;;;13.19;100.00;100983.09;4971880;28;20051;-88
2022/05/10 00:33:42;;;;;;;16.08;12.30;;;14.50;99.90;;;13.28;100.00;100986.59;4973540;28;20039;-87
2022/05/10 00:36:14;;;;;;;16.58;12.43;;;14.60;99.90;;;13.32;100.00;100981.63;4974512;28;20121;-86
2022/05/10 00:38:42;;;;;;;14.35;11.25;;;14.60;99.90;;;13.36;100.00;100972.00;4973915;28;20137;-87
2022/05/10 00:41:17;;;;;;;14.18;11.52;;;14.70;99.90;;;13.41;100.00;100980.47;4973088;28;20074;-87
2022/05/10 00:43:51;;;;;;;16.55;10.52;;;14.80;99.90;;;13.43;100.00;100968.31;4971169;28;20070;-87
2022/05/10 00:46:24;;;;;;;14.77;10.23;;;14.80;99.90;;;13.45;100.00;100968.97;4976877;28;20117;-88
2022/05/10 00:48:59;;;;;;;15.95;11.02;;;14.90;99.90;;;13.45;100.00;100965.38;4973649;28;20121;-88
2022/05/10 00:51:39;;;;;;;15.55;11.20;;;14.90;99.90;;;13.45;100.00;100965.38;4973528;28;20042;-88
2022/05/10 00:54:28;;;;;;;14.25;11.48;;;14.90;99.90;;;13.46;100.00;100967.06;4973427;28;20054;-88
2022/05/10 00:57:09;;;;;;;18.30;11.88;;;14.90;99.90;;;13.45;100.00;100968.97;4969749;28;20114;-87
2022/05/10 00:59:55;;;;;;;15.30;11.38;;;14.90;99.90;;;13.46;100.00;100964.31;4958488;28;20522;-88
2022/05/10 01:02:34;;;;;;;15.30;12.23;;;14.90;99.90;;;13.43;100.00;100962.00;4971235;28;20126;-88
2022/05/10 01:05:11;;;;;;;15.60;12.05;;;14.90;99.90;;;13.38;100.00;100958.97;4972351;28;20133;-87
2022/05/10 01:07:52;;;;;;;15.90;12.48;;;14.80;99.90;;;13.36;100.00;100958.34;4987496;28;20039;-88
2022/05/10 01:10:31;;;;;;;16.80;11.60;;;14.80;99.90;;;13.33;100.00;100947.78;4972803;28;20082;-87
2022/05/10 01:13:09;;;;;;;15.88;12.05;;;14.70;99.90;;;13.29;100.00;100950.88;4972283;28;20039;-88
2022/05/10 01:15:41;;;;;;;18.80;12.73;;;14.70;99.90;;;13.27;100.00;100961.16;4971193;28;20065;-86
2022/05/10 01:18:08;;;;;;;19.33;12.82;;;14.60;99.90;;;13.25;100.00;100951.44;4972339;28;20074;-88
2022/05/10 01:20:42;;;;;;;16.98;13.30;;;14.60;99.90;;;13.22;100.00;100951.84;4972533;28;20039;-88
2022/05/10 01:23:48;;;;;;;15.43;12.77;;;14.60;99.90;;;13.22;100.00;100954.56;4984445;28;20047;-87
2022/05/10 01:26:29;;;;;;;17.30;13.32;;;14.60;99.90;;;13.18;100.00;100951.38;4957364;28;20049;-87
2022/05/10 01:29:03;;;;;;;18.00;13.02;;;14.50;99.90;;;13.17;100.00;100946.91;4970869;28;20570;-87
2022/05/10 01:31:38;;;;;;;19.27;14.10;;;14.50;99.90;;;13.15;100.00;100949.00;4984871;28;20467;-89
2022/05/10 01:34:09;;;;;;;16.10;13.48;;;14.50;99.90;;;13.14;100.00;100947.31;4971598;28;20070;-88
2022/05/10 01:36:44;;;;;;;15.82;13.85;;;14.50;99.90;;;13.13;100.00;100940.16;4988267;28;20611;-88
2022/05/10 01:39:21;;;;;;;18.77;13.70;;;14.50;99.90;;;13.09;100.00;100931.47;4987696;28;20043;-88
2022/05/10 01:41:59;;;;;;;18.98;14.60;;;14.40;99.90;;;13.06;100.00;100934.63;4972331;28;20039;-88
2022/05/10 01:44:34;;;;;;;19.15;13.80;;;14.40;99.90;;;13.03;100.00;100934.16;4972161;28;20043;-87
2022/05/10 01:47:14;;;;;;;15.05;12.98;;;14.40;99.90;;;13.00;100.00;100931.78;4974318;28;20054;-88
2022/05/10 01:49:47;;;;;;;16.13;12.85;;;14.30;99.90;;;12.98;100.00;100925.66;4986922;28;20047;-88
2022/05/10 01:52:21;;;;;;;17.95;14.07;;;14.30;99.90;;;12.94;100.00;100924.34;4972259;28;20043;-88
2022/05/10 01:55:26;;;;;;;18.75;14.18;;;14.20;99.90;;;12.89;100.00;100925.78;4984552;28;20688;-88
2022/05/10 01:57:55;;;;;;;18.42;14.35;;;14.20;99.90;;;12.89;100.00;100923.03;4970983;28;20463;-88
2022/05/10 02:00:28;;;;;;;16.60;13.93;;;14.20;99.90;;;12.88;100.00;100920.50;4971420;28;20042;-88
2022/05/10 02:03:04;;;;;;;16.38;13.20;;;14.20;99.90;;;12.86;100.00;100920.69;4970115;28;20054;-87
2022/05/10 02:05:37;;;;;;;16.73;12.35;;;14.20;99.90;;;12.89;100.00;100931.25;4971285;28;20621;-87
2022/05/10 02:08:17;;;;;;;15.32;12.27;;;14.20;99.90;;;12.89;100.00;100927.66;4971123;28;20608;-88
2022/05/10 02:10:50;;;;;;;15.90;12.50;;;14.20;99.90;;;12.91;100.00;100920.97;4970963;28;20042;-88
2022/05/10 02:13:25;;;;;;;13.57;11.27;;;14.20;99.90;;;12.97;100.00;100918.53;4970856;28;20051;-88
2022/05/10 02:15:59;;;;;;;16.40;11.23;;;14.30;99.90;;;12.98;100.00;100929.22;4972757;28;20051;-88
2022/05/10 02:18:35;;;;;;;15.18;10.93;;;14.30;99.90;;;13.07;100.00;100924.53;4970622;28;20110;-87
2022/05/10 02:21:13;;;;;;;13.35;10.18;;;14.40;99.90;;;13.07;100.00;100935.44;4970195;28;20107;-88
2022/05/10 02:23:49;;;;;;;15.23;9.75;;;14.50;99.90;;;13.11;100.00;100926.66;4971184;28;20073;-88
2022/05/10 02:26:25;;;;;;;13.80;10.68;;;14.50;99.90;;;13.14;100.00;100925.47;4971644;28;20038;-87
2022/05/10 02:29:03;;;;;;;13.00;9.95;;;14.60;99.90;;;13.17;100.00;100929.69;4971245;28;20067;-88
2022/05/10 02:34:23;;;;;;;12.48;9.15;;;14.70;99.90;;;13.21;100.00;100931.00;4968671;28;20055;-88
2022/05/10 02:36:50;;;;;;;14.60;9.43;;;14.70;99.90;;;13.22;100.00;100922.59;4972130;28;20038;-88
2022/05/10 02:39:18;;;;;;;13.10;8.55;;;14.70;99.90;;;13.24;100.00;100923.25;4970529;28;20101;-88
2022/05/10 02:41:45;;;;;;;12.50;9.05;;;14.70;99.90;;;13.25;100.00;100924.09;4970478;28;20228;-88
2022/05/10 02:44:12;;;;;;;13.02;8.50;;;14.80;99.90;;;13.29;100.00;100917.22;4970366;28;20053;-87
2022/05/10 02:46:42;;;;;;;13.98;8.45;;;14.80;99.90;;;13.29;100.00;100918.06;4999898;28;20069;-90
2022/05/10 02:49:09;;;;;;;11.05;8.32;;;14.80;99.90;;;13.32;100.00;100908.66;4969519;28;20098;-88
2022/05/10 02:51:36;;;;;;;11.20;7.88;;;14.80;99.90;;;13.34;100.00;100909.31;4969148;28;20035;-88
2022/05/10 02:54:04;;;;;;;10.80;7.75;;;14.90;99.90;;;13.37;100.00;100910.84;4970512;28;20499;-89
2022/05/10 02:56:33;;;;;;;11.35;8.25;;;14.90;99.90;;;13.38;100.00;100901.56;4970215;28;20133;-88
2022/05/10 02:59:05;;;;;;;11.55;8.45;;;14.90;99.90;;;13.39;100.00;100906.00;4968613;28;20066;-88
2022/05/10 03:01:40;;;;;;;12.70;8.00;;;15.00;99.90;;;13.41;100.00;100904.78;4986309;28;20078;-89
2022/05/10 03:04:11;;;;;;;13.13;8.10;;;15.00;99.90;;;13.42;100.00;100894.66;4963829;28;20121;-88
2022/05/10 03:06:42;;;;;;;10.20;7.55;;;15.00;99.90;;;13.43;100.00;100889.00;4986240;28;20503;-88
2022/05/10 03:09:10;;;;;;;11.82;7.57;;;15.00;99.90;;;13.44;100.00;100887.13;4967804;28;20141;-87
2022/05/10 03:11:38;;;;;;;10.70;7.72;;;15.00;99.90;;;13.44;100.00;100879.78;4970137;28;20043;-88
2022/05/10 03:14:07;;;;;;;11.88;8.30;;;15.00;99.90;;;13.44;100.00;100878.91;4969572;28;20695;-88
2022/05/10 03:16:35;;;;;;;12.80;8.32;;;15.00;99.90;;;13.47;100.00;100886.75;4986358;28;20053;-88
2022/05/10 03:19:04;;;;;;;12.98;7.90;;;15.10;99.90;;;13.47;100.00;100882.13;4981823;28;20051;-89
2022/05/10 03:21:35;;;;;;;10.20;8.07;;;15.00;99.90;;;13.47;100.00;100878.53;4968941;28;20490;-89
2022/05/10 03:24:04;;;;;;;11.32;7.88;;;15.00;99.90;;;13.46;100.00;100874.97;4969659;28;20047;-88
2022/05/10 03:26:31;;;;;;;11.13;7.80;;;15.00;99.90;;;13.47;100.00;100873.06;4969738;28;20150;-88
2022/05/10 03:28:59;;;;;;;10.73;8.23;;;15.00;99.90;;;13.46;100.00;100876.84;4969305;28;20105;-88
2022/05/10 03:31:29;;;;;;;12.98;8.77;;;15.00;99.90;;;13.47;100.00;100875.81;4985828;28;20089;-89
2022/05/10 03:36:43;;;;;;;12.98;8.77;;;15.00;99.90;;;13.42;100.00;100867.34;4970033;28;20047;-89
2022/05/10 03:39:11;;;;;;;10.52;8.05;;;14.90;99.90;;;13.39;100.00;100867.75;4968713;28;20042;-87
2022/05/10 03:41:39;;;;;;;11.18;8.18;;;14.90;99.90;;;13.37;100.00;100864.34;4965243;28;20105;-88
2022/05/10 03:44:06;;;;;;;13.05;9.20;;;14.80;99.90;;;13.33;100.00;100863.91;4969626;28;20054;-88
2022/05/10 03:46:34;;;;;;;11.43;8.30;;;14.80;99.90;;;13.30;100.00;100865.09;4985385;28;20039;-88
2022/05/10 03:49:02;;;;;;;11.63;8.75;;;14.70;99.90;;;13.28;100.00;100869.91;4982480;28;20193;-88
2022/05/10 03:51:30;;;;;;;15.00;8.40;;;14.70;99.90;;;13.22;100.00;100864.38;4989266;28;20503;-89
2022/05/10 03:53:59;;;;;;;13.20;9.13;;;14.60;99.90;;;13.20;100.00;100863.72;4989019;28;20480;-88
2022/05/10 03:56:26;;;;;;;11.55;9.15;;;14.60;99.90;;;13.17;100.00;100864.94;4969890;28;20138;-88
2022/05/10 03:58:54;;;;;;;12.57;9.93;;;14.60;99.90;;;13.17;100.00;100866.81;4967006;28;20071;-89
2022/05/10 04:01:23;;;;;;;14.70;10.98;;;14.60;99.90;;;13.16;100.00;100860.53;4985331;28;20044;-88
2022/05/10 04:03:51;;;;;;;14.85;11.07;;;14.50;99.90;;;13.16;100.00;100860.53;4973003;28;20046;-87
2022/05/10 04:06:19;;;;;;;15.65;10.18;;;14.50;99.90;;;13.12;100.00;100861.94;4988587;28;20042;-89
2022/05/10 04:08:47;;;;;;;16.40;10.52;;;14.50;99.90;;;13.13;100.00;100863.63;4971522;28;20542;-92
2022/05/10 04:11:16;;;;;;;14.63;10.60;;;14.50;99.90;;;13.09;100.00;100854.13;4965514;28;20494;-86
2022/05/10 04:13:44;;;;;;;14.68;10.38;;;14.50;99.90;;;13.08;100.00;100855.19;4969304;28;20059;-86
2022/05/10 04:16:12;;;;;;;16.35;10.65;;;14.50;99.90;;;13.07;100.00;100853.47;4969330;28;20145;-86
2022/05/10 04:18:40;;;;;;;15.13;10.32;;;14.40;99.90;;;13.04;100.00;100851.13;4968140;28;20066;-86
2022/05/10 04:21:08;;;;;;;14.32;10.00;;;14.40;99.90;;;13.03;100.00;100857.63;4984124;28;20137;-86
2022/05/10 04:23:36;;;;;;;15.38;10.10;;;14.40;99.90;;;13.03;100.00;100852.19;4970370;28;20058;-85
2022/05/10 04:26:06;;;;;;;15.40;9.52;;;14.40;99.90;;;13.05;100.00;100850.09;4970687;28;20042;-86
2022/05/10 04:28:37;;;;;;;14.23;9.88;;;14.50;99.90;;;13.05;100.00;100850.94;4984105;28;20593;-87
2022/05/10 04:31:04;;;;;;;14.25;9.68;;;14.50;99.90;;;13.07;100.00;100850.75;4969234;28;20131;-86
2022/05/10 04:33:32;;;;;;;12.38;9.77;;;14.50;99.90;;;13.07;100.00;100851.59;4970378;28;20039;-86
2022/05/10 04:35:59;;;;;;;12.48;9.68;;;14.50;99.90;;;13.08;100.00;100845.09;4983929;28;20093;-86
2022/05/10 04:38:27;;;;;;;13.02;9.82;;;14.50;99.90;;;13.08;100.00;100845.09;4967720;28;20050;-86
2022/05/10 04:43:45;;;;;;;13.90;9.48;;;14.50;99.90;;;13.09;100.00;100851.41;4967818;28;20129;-87
2022/05/10 04:46:12;;;;;;;14.27;9.68;;;14.50;99.90;;;13.11;100.00;100860.25;4988934;28;20137;-87
2022/05/10 04:48:39;;;;;;;13.65;9.82;;;14.50;99.90;;;13.12;100.00;100861.94;4984126;28;20070;-88
2022/05/10 04:51:07;;;;;;;14.02;10.20;;;14.60;99.90;;;13.16;100.00;100857.78;4969352;28;20050;-87
2022/05/10 04:53:35;;;;;;;13.32;10.40;;;14.60;99.90;;;13.17;100.00;100850.44;4987314;28;20099;-88
2022/05/10 04:56:03;;;;;;;16.80;10.15;;;14.60;99.90;;;13.19;100.00;100860.13;4972219;28;20047;-87
2022/05/10 04:58:31;;;;;;;13.73;10.10;;;14.70;99.90;;;13.21;100.00;100858.06;4971381;28;20525;-89
2022/05/10 05:01:05;;;;;;;15.35;9.80;;;14.70;99.90;;;13.24;100.00;100854.09;4984552;28;20101;-90
2022/05/10 05:03:33;;;;;;;12.75;10.27;;;14.70;99.90;;;13.27;100.00;100854.56;4988000;28;20042;-88
2022/05/10 05:06:01;;;;;;;15.38;10.07;;;14.80;99.90;;;13.33;100.00;100852.09;4989390;28;20567;-87
2022/05/10 05:08:28;;;;;;;13.18;9.93;;;14.90;99.90;;;13.38;100.00;100863.28;4983407;28;20079;-91
2022/05/10 05:10:58;;;;;;;12.90;10.15;;;15.00;99.90;;;13.42;100.00;100861.88;4970734;28;20050;-87
2022/05/10 05:13:26;;;;;;;17.05;10.57;;;15.00;99.90;;;13.43;100.00;100858.09;4972829;28;20043;-89
2022/05/10 05:15:54;;;;;;;13.18;9.43;;;15.10;99.90;;;13.48;100.00;100861.09;4972434;28;20050;-89
2022/05/10 05:18:23;;;;;;;12.10;9.80;;;15.20;99.90;;;13.53;100.00;100855.03;4971715;28;20055;-90
2022/05/10 05:20:51;;;;;;;19.00;10.35;;;15.20;99.90;;;13.57;100.00;100865.38;4972536;28;20167;-89
2022/05/10 05:23:21;;;;;;;15.70;10.23;;;15.30;99.90;;;13.61;100.00;100869.44;4974040;28;20058;-90
2022/05/10 05:25:49;;;;;;;13.07;9.83;;;15.40;99.90;;;13.65;100.00;100867.13;4970865;28;20129;-88
2022/05/10 05:28:17;;;;;;;15.43;9.25;;;15.40;99.90;;;13.67;100.00;100865.91;4971559;28;20106;-90
2022/05/10 05:30:45;;;;;;;14.55;9.27;;;15.50;99.90;;;13.71;100.00;100865.50;4971573;28;20085;-91
2022/05/10 05:33:13;;;;;;;12.35;9.57;;;15.50;99.90;;;13.74;100.00;100860.47;4980977;28;20411;-93
2022/05/10 05:35:43;;;;;;;14.52;9.57;;;15.60;99.90;;;13.77;100.00;100868.31;4994500;28;20167;-94
2022/05/10 05:38:10;;;;;;;12.32;8.55;;;15.60;99.90;;;13.79;100.00;100868.13;4994430;28;20054;-94
2022/05/10 05:40:38;;;;;;;11.98;8.70;;;15.70;99.90;;;13.81;100.00;100869.59;4975387;28;20043;-93
2022/05/10 05:43:08;;;;;;;13.70;9.32;;;15.70;99.90;;;13.84;100.00;100871.09;4974940;28;20126;-95
2022/05/10 05:45:37;;;;;;;11.30;8.70;;;15.70;99.90;;;13.84;100.00;100866.47;4970666;28;20039;-93
2022/05/10 05:48:10;;;;;;;12.30;8.82;;;15.70;99.90;;;13.86;100.00;100875.34;4975195;28;20043;-94
2022/05/10 05:50:38;;;;;;;12.95;8.77;;;15.80;99.90;;;13.88;100.00;100869.69;4982909;28;20034;-93
2022/05/10 05:53:07;;;;;;;14.70;9.38;;;15.90;99.90;;;13.91;100.00;100872.00;4977718;28;20078;-93
2022/05/10 05:55:36;;;;;;;13.80;9.35;;;15.90;99.90;;;13.92;100.00;100870.09;4974653;28;20054;-94
2022/05/10 05:58:04;;;;;;;13.68;9.05;;;15.90;99.90;;;13.95;100.00;100877.91;4982383;28;20136;-93
2022/05/10 06:00:33;;;;;;;11.80;8.82;;;15.90;99.90;;;13.98;100.00;100872.91;4976132;28;20133;-94
2022/05/10 06:03:03;;;;;;;;;;;16.00;99.90;;;14.05;100.00;100868.34;4974442;28;20043;-94
2022/05/10 06:05:31;;;;;;;15.27;9.07;;;16.10;99.90;;;14.10;100.00;100865.00;5004404;28;20730;-93
2022/05/10 06:08:03;;;;;;;16.30;8.95;;;16.30;99.90;;;14.19;100.00;100862.97;4972138;28;20054;-94
2022/05/10 06:10:32;;;;;;;13.98;9.73;;;16.50;99.90;;;14.24;100.00;100863.19;4975326;28;20042;-92
2022/05/10 06:13:06;;;;;;;13.50;8.80;;;16.60;99.90;;;14.33;100.00;100864.72;4978813;28;20546;-95
2022/05/10 06:15:34;;;;;;;16.10;8.77;;;16.70;99.90;;;14.37;100.00;100871.47;4977694;28;20049;-94
2022/05/10 06:18:04;;;;;;;13.20;9.25;;;16.80;99.90;;;14.40;100.00;100865.63;4968859;28;20078;-93
2022/05/10 06:20:36;;;;;;;18.15;10.07;;;16.80;99.90;;;14.43;100.00;100870.69;4990107;28;20222;-94
2022/05/10 06:23:04;;;;;;;13.55;9.32;;;16.90;99.90;;;14.47;100.00;100863.78;4974306;28;20046;-94
2022/05/10 06:25:45;;;;;;;14.68;9.18;;;16.90;99.90;;;14.54;100.00;100860.22;4972043;28;20042;-94
2022/05/10 06:28:48;;;;;;;15.25;9.45;;;16.90;99.90;;;14.57;100.00;100866.16;4970864;28;20533;-93
2022/05/10 06:31:24;;;;;;;13.77;9.45;;;17.00;99.90;;;14.61;100.00;100863.88;4974421;28;20054;-93
2022/05/10 06:34:01;;;;;;;11.93;9.20;;;17.00;99.90;;;14.63;100.00;100865.34;4980376;28;20046;-93
2022/05/10 06:36:31;;;;;;;14.55;9.30;;;17.00;99.90;;;14.62;100.00;100858.19;4973221;28;20077;-96
2022/05/10 06:39:06;;;;;;;14.13;9.27;;;17.00;99.90;;;14.63;100.00;100859.88;4975051;28;20061;-93
2022/05/10 06:41:49;;;;;;;15.60;9.75;;;17.00;99.90;;;14.67;100.00;100854.84;4993560;28;20559;-95
2022/05/10 06:44:39;;;;;;;13.85;8.90;;;17.10;99.90;;;14.69;100.00;100850.00;4994198;28;20046;-94
2022/05/10 06:47:16;;;;;;;37.15;14.05;;;17.10;99.90;;;14.76;100.00;100848.13;4975841;28;20048;-94
2022/05/10 06:49:44;;;;;;;50.20;15.45;;;17.20;99.90;;;14.86;100.00;100848.59;4988347;28;20241;-93
2022/05/10 07:00:39;;;;;;;;;;;;;;;;;;;;;
2022/05/10 07:08:15;;;;;;;;;;;;;;;;;;;;;
2022/05/10 07:26:21;;;;;;;15.40;8.45;;;18.50;99.90;;;15.93;100.00;100810.38;5398289;23;20121;-94
2022/05/10 07:28:51;;;;;;;15.55;8.63;;;18.60;99.90;;;16.07;100.00;100808.47;4972205;28;20050;-93
2022/05/10 07:31:28;;;;;;;15.02;8.45;;;18.70;99.90;;;16.11;100.00;100806.16;4972149;28;20047;-94
2022/05/10 07:34:07;;;;;;;;;;;;;;;;;;;;;
2022/05/10 07:36:44;;;;;;;12.15;8.20;;;18.80;99.90;;;16.20;100.00;100799.34;4973498;28;20134;-94
2022/05/10 07:39:21;;;;;;;10.80;7.78;;;18.90;99.90;;;16.45;100.00;100801.41;4969042;28;20051;-93
2022/05/10 07:41:51;;;;;;;10.52;7.20;;;19.00;99.90;;;16.48;100.00;100804.56;4981140;28;20038;-93
2022/05/10 07:44:19;;;;;;;12.10;7.55;;;19.20;99.60;;;16.60;100.00;100793.72;4972735;28;20038;-95
2022/05/10 07:46:49;;;;;;;12.93;7.57;;;19.40;99.20;;;16.81;100.00;100789.81;4972202;28;20057;-95
2022/05/10 07:49:22;;;;;;;12.50;7.50;;;19.50;98.50;;;16.84;100.00;100794.94;4967880;28;20049;-93
2022/05/10 07:51:52;;;;;;;9.88;6.53;;;19.60;98.30;;;16.76;100.00;100797.91;4963162;28;20042;-94
2022/05/10 07:54:24;;;;;;;12.98;6.25;;;19.60;97.80;;;16.70;100.00;100794.13;4978863;28;20512;-94
2022/05/10 07:56:59;;;;;;;10.27;7.35;;;19.60;98.30;;;16.75;100.00;100786.09;4963535;28;20105;-93
2022/05/10 07:59:39;;;;;;;;;;;;;;;;;;;;;
2022/05/10 08:02:19;;;;;;;13.80;7.05;;;19.60;99.10;;;16.84;100.00;100786.69;4971975;28;20043;-93
2022/05/10 08:04:59;;;;;;;;;;;;;;;;;;;;;
2022/05/10 08:07:38;;;;;;;11.93;6.28;;;19.60;98.50;;;16.98;100.00;100790.19;4982539;28;20049;-93
2022/05/10 08:10:19;;;;;;;12.57;6.38;;;19.70;98.40;;;17.09;100.00;100780.41;4969979;28;20039;-93
2022/05/10 08:13:25;;;;;;;;;;;;;;;;;;;;;
2022/05/10 08:16:14;;;;;;;;;;;;;;;;;;;;;
2022/05/10 08:18:45;;;;;;;14.18;6.30;;;19.80;97.80;;;17.48;96.47;100779.28;4988717;28;20134;-94
2022/05/10 08:21:17;;;;;;;10.57;5.72;;;19.80;97.00;;;17.56;96.20;100780.91;4988968;28;20046;-95
2022/05/10 08:23:59;;;;;;;;;;;;;;;;;;;;;
2022/05/10 08:26:28;;;;;;;10.38;5.95;;;19.80;97.20;;;17.57;96.78;100777.94;4967507;28;20039;-93
2022/05/10 08:28:59;;;;;;;8.90;5.35;;;19.80;97.60;;;17.55;96.44;100774.59;4976335;28;20042;-93
2022/05/10 08:31:37;;;;;;;9.02;5.28;;;19.80;97.20;;;17.47;96.76;100774.84;4976504;28;20061;-95
2022/05/10 08:34:28;;;;;;;13.38;5.30;;;19.90;96.90;;;17.45;97.90;100776.97;4983114;28;20046;-95
2022/05/10 08:37:46;;;;;;;10.93;4.90;;;19.90;97.50;;;17.44;97.11;100777.19;4959897;28;20138;-95
2022/05/10 08:40:27;;;;;;;10.68;5.40;;;20.00;97.60;;;17.49;96.38;100785.63;4941899;28;20106;-89
2022/05/10 08:43:00;;;;;;;13.48;5.50;;;20.00;96.80;;;17.50;95.42;100777.16;4976893;28;20515;-91
2022/05/10 08:45:30;;;;;;;11.10;4.80;;;19.90;96.60;;;17.66;95.72;100777.66;4973688;28;21273;-92
2022/05/10 08:47:58;;;;;;;10.25;5.55;;;19.90;96.70;;;17.64;96.87;100777.03;4973481;28;20046;-91
2022/05/10 08:50:25;;;;;;;8.75;5.38;;;19.90;97.30;;;17.70;97.35;100771.47;4975796;28;20039;-91
2022/05/10 08:52:52;;;;;;;9.60;5.38;;;19.90;97.80;;;17.67;97.25;100766.44;4984686;28;20185;-91
2022/05/10 08:55:27;;;;;;;10.18;5.88;;;20.00;97.50;;;17.69;96.13;100774.47;4977135;28;20054;-90
2022/05/10 08:58:02;;;;;;;8.20;5.00;;;20.00;96.90;;;17.63;96.94;100767.97;4990182;28;20046;-91
2022/05/10 09:00:39;;;;;;;14.38;7.05;;;20.00;97.00;;;17.73;95.40;100770.19;4981009;28;20499;-91
2022/05/10 09:03:26;;;;;;;12.00;6.18;;;20.10;96.60;;;17.69;96.25;100768.97;4976311;28;20511;-90
2022/05/10 09:06:00;;;;;;;8.10;5.72;;;20.10;96.70;;;17.78;95.76;100765.69;4962438;28;20042;-91
2022/05/10 09:08:40;;;;;;;16.27;5.75;;;20.20;96.40;;;17.88;95.42;100751.44;4986358;28;20047;-91
2022/05/10 09:11:14;;;;;;;10.30;5.45;;;20.20;96.10;;;17.83;94.59;100759.50;4994420;28;20046;-91
2022/05/10 09:13:45;;;;;;;10.60;5.90;;;20.30;95.70;;;17.78;94.91;100767.59;4989834;28;20042;-90
2022/05/10 09:16:15;;;;;;;8.27;5.40;;;20.40;95.50;;;17.69;94.90;100756.03;4978217;28;20070;-91
2022/05/10 09:18:50;;;;;;;10.50;5.47;;;20.40;95.00;;;17.78;94.76;100757.44;5001212;28;20486;-91
2022/05/10 09:21:23;;;;;;;8.95;5.45;;;20.40;95.10;;;17.82;96.08;100748.69;4976279;28;20051;-91
2022/05/10 09:24:12;;;;;;;10.18;5.35;;;20.40;95.60;;;18.16;94.74;100750.94;4973287;28;20502;-91
2022/05/10 09:26:44;;;;;;;9.23;5.80;;;20.60;95.20;;;18.29;92.89;100752.66;4972871;28;20440;-91
2022/05/10 09:29:21;;;;;;;9.82;5.65;;;20.70;94.70;;;18.18;93.98;100745.16;4988130;28;20054;-91
2022/05/10 09:34:50;;;;;;;10.00;5.28;;;20.60;95.40;;;18.12;93.89;100743.34;4991218;28;20200;-90
2022/05/10 09:37:25;;;;;;;7.95;5.20;;;20.70;95.00;;;18.10;93.70;100738.06;4979738;28;20047;-90
2022/05/10 09:40:10;;;;;;;10.70;5.40;;;20.80;94.60;;;18.06;95.11;100749.78;4958937;28;20504;-91
2022/05/10 09:42:40;;;;;;;10.60;6.00;;;20.70;94.90;;;18.13;94.28;100742.28;4972181;28;20039;-91
2022/05/10 09:45:14;;;;;;;9.23;5.18;;;20.80;94.50;;;18.08;93.41;100733.84;4977115;28;20530;-91
2022/05/10 09:47:58;;;;;;;9.10;5.82;;;20.70;94.20;;;18.18;93.18;100731.41;4978136;28;20038;-91
2022/05/10 09:50:33;;;;;;;12.00;5.53;;;20.70;94.30;;;18.25;92.99;100740.44;4974733;28;20046;-90
2022/05/10 09:53:27;;;;;;;15.13;5.65;;;20.70;94.30;;;18.12;94.31;100735.91;4974365;28;20057;-91
2022/05/10 09:56:02;;;;;;;11.93;5.30;;;20.70;95.10;;;18.15;94.99;100729.94;4958464;28;20093;-91
2022/05/10 09:58:35;;;;;;;10.18;5.50;;;20.80;94.90;;;18.34;92.82;100730.78;4964652;28;20055;-90
2022/05/10 10:01:04;;;;;;;;;;;20.90;93.90;;;18.31;93.52;100731.25;4973493;28;20090;-91
2022/05/10 10:03:37;;;;;;;18.00;5.35;;;20.90;94.30;;;18.27;92.96;100727.25;4976374;28;19929;-90
2022/05/10 10:06:17;;;;;;;12.82;6.30;;;20.90;94.00;;;18.32;93.13;100729.34;4981653;28;20050;-90
2022/05/10 10:08:49;;;;;;;13.52;6.20;;;21.00;93.70;;;18.29;93.95;100727.88;4979623;28;20490;-91
2022/05/10 10:11:28;;;;;;;11.80;5.67;;;21.00;94.00;;;18.59;89.02;100724.31;4976253;28;20039;-92
2022/05/10 10:13:57;;;;;;;10.35;5.68;;;21.10;92.60;;;18.56;90.79;100716.50;4971548;28;20411;-90
2022/05/10 10:16:28;;;;;;;8.25;5.20;;;21.20;92.60;;;18.41;93.06;100721.59;4962609;28;20138;-92
2022/05/10 10:19:00;;;;;;;11.52;5.60;;;21.20;93.20;;;18.55;93.69;100720.34;4966709;28;20507;-90
2022/05/10 10:21:37;;;;;;;9.07;5.20;;;21.20;93.60;;;18.57;94.42;100712.69;4974608;28;20085;-90
2022/05/10 10:24:05;;;;;;;8.90;4.32;;;21.30;93.50;;;18.71;89.98;100718.84;4975215;28;20165;-90
2022/05/10 10:26:43;;;;;;;7.65;4.50;;;21.30;91.80;;;18.76;88.09;100697.78;4982151;28;20156;-90
2022/05/10 10:29:22;;;;;;;11.18;4.50;;;21.30;91.00;;;18.51;88.59;100700.69;4975671;28;20054;-90
2022/05/10 10:31:55;;;;;;;7.75;4.80;;;21.20;91.40;;;18.35;89.73;100702.16;5224472;23;20104;-90
2022/05/10 10:34:38;;;;;;;9.00;4.85;;;21.20;91.70;;;18.28;88.05;100700.56;4999692;28;20072;-90
2022/05/10 10:37:11;;;;;;;6.75;4.80;;;21.10;91.50;;;18.17;89.64;100697.50;4987568;28;20098;-90
2022/05/10 10:39:58;;;;;;;9.30;5.40;;;21.00;91.80;;;18.22;88.26;100690.47;5006070;28;20129;-90
2022/05/10 10:42:34;;;;;;;7.22;4.78;;;21.00;91.20;;;18.11;89.24;100694.84;4994042;28;20047;-95
2022/05/10 10:45:05;;;;;;;41.08;6.97;;;20.90;91.20;;;18.08;87.60;100695.28;4989447;28;20065;-91
2022/05/10 10:47:41;;;;;;;9.13;4.90;;;20.80;90.50;;;18.01;88.89;100702.78;5009833;28;20123;-83
2022/05/10 10:50:21;;;;;;;11.27;4.65;;;20.70;91.30;;;17.94;87.14;100695.44;4995908;28;20046;-88
2022/05/10 10:52:51;;;;;;;8.77;4.70;;;20.60;90.90;;;17.88;87.65;100690.88;4989045;28;20045;-87
2022/05/10 10:55:21;;;;;;;7.72;5.10;;;20.50;91.70;;;17.85;87.92;100687.72;4985157;28;20121;-87
2022/05/10 10:58:02;;;;;;;10.07;5.03;;;20.40;91.80;;;17.79;87.37;100686.69;4989924;28;20570;-86
2022/05/10 11:00:38;;;;;;;8.35;4.68;;;20.40;91.50;;;17.84;85.92;100683.25;4986597;28;20038;-87
2022/05/10 11:03:15;;;;;;;9.35;4.50;;;20.30;91.10;;;17.80;88.01;100688.38;4990395;28;20121;-87
2022/05/10 11:06:23;;;;;;;8.85;4.55;;;20.30;91.50;;;17.80;85.85;100671.88;4991077;28;20104;-87
2022/05/10 11:09:21;;;;;;;7.90;4.15;;;20.30;91.20;;;17.77;86.84;100661.31;4985418;28;20130;-88
2022/05/10 11:12:07;;;;;;;9.45;4.57;;;20.30;91.00;;;17.80;86.24;100660.84;4986714;28;20046;-88
2022/05/10 11:14:56;;;;;;;7.13;4.55;;;20.30;90.80;;;17.75;86.01;100657.94;4987063;28;20415;-87
2022/05/10 11:17:40;;;;;;;8.68;4.38;;;20.30;90.80;;;17.70;86.56;100655.84;4991315;28;20054;-86
2022/05/10 11:20:34;;;;;;;8.45;4.35;;;20.30;91.00;;;17.70;86.35;100650.34;4986417;28;20508;-87